createdAt,value
2017-10-06T00:00:08.405Z,13.59
2017-10-06T00:02:35.920Z,13.79
2017-10-06T00:05:03.445Z,13.47
2017-10-06T00:07:30.997Z,13.18
2017-10-06T00:09:58.522Z,13.42
2017-10-06T00:12:26.274Z,13.45
2017-10-06T00:14:53.823Z,13.57
2017-10-06T00:17:21.719Z,13.65
2017-10-06T00:19:49.562Z,13.62
2017-10-06T00:22:17.126Z,13.66
2017-10-06T00:24:44.657Z,13.57
2017-10-06T00:27:12.238Z,13.62
2017-10-06T00:29:39.786Z,13.45
2017-10-06T00:32:07.442Z,13.37
2017-10-06T00:34:34.972Z,13.41
2017-10-06T00:37:02.527Z,13.51
2017-10-06T00:39:30.178Z,13.49
2017-10-06T00:41:57.769Z,13.66
2017-10-06T00:44:25.360Z,13.66
2017-10-06T00:46:53.143Z,13.63
2017-10-06T00:49:20.684Z,13.66
2017-10-06T00:51:48.214Z,13.64
2017-10-06T00:54:15.805Z,13.79
2017-10-06T00:56:43.673Z,13.83
2017-10-06T00:59:11.276Z,13.78
2017-10-06T01:01:38.930Z,13.64
2017-10-06T01:04:06.535Z,13.38
2017-10-06T01:06:34.354Z,13.50
2017-10-06T01:09:01.921Z,13.39
2017-10-06T01:11:29.497Z,13.53
2017-10-06T01:13:57.032Z,13.46
2017-10-06T01:16:24.630Z,13.43
2017-10-06T01:18:53.107Z,13.50
2017-10-06T01:21:20.647Z,13.48
2017-10-06T01:23:48.194Z,13.28
2017-10-06T01:26:16.092Z,13.36
2017-10-06T01:28:43.932Z,13.36
2017-10-06T01:31:11.519Z,13.39
2017-10-06T01:33:39.088Z,13.27
2017-10-06T01:36:07.428Z,13.38
2017-10-06T01:38:35.019Z,13.40
2017-10-06T01:41:02.581Z,13.35
2017-10-06T01:43:30.116Z,13.20
2017-10-06T01:45:57.896Z,12.91
2017-10-06T01:48:25.403Z,12.83
2017-10-06T01:50:53.043Z,13.08
2017-10-06T01:53:20.658Z,13.24
2017-10-06T01:55:48.184Z,13.23
2017-10-06T01:58:15.703Z,13.31
2017-10-06T02:00:43.293Z,13.45
2017-10-06T02:03:10.821Z,13.52
2017-10-06T02:05:38.360Z,13.40
2017-10-06T02:08:05.934Z,13.23
2017-10-06T02:10:33.486Z,13.13
2017-10-06T02:13:01.006Z,13.12
2017-10-06T02:15:28.561Z,13.13
2017-10-06T02:17:56.113Z,13.40
2017-10-06T02:20:23.763Z,13.48
2017-10-06T02:22:51.349Z,13.31
2017-10-06T02:25:18.890Z,13.35
2017-10-06T02:27:46.463Z,13.21
2017-10-06T02:30:14.040Z,12.93
2017-10-06T02:32:41.556Z,12.99
2017-10-06T02:35:09.128Z,13.03
2017-10-06T02:37:36.716Z,13.01
2017-10-06T02:40:04.263Z,13.01
2017-10-06T02:42:31.816Z,13.14
2017-10-06T02:44:59.386Z,13.00
2017-10-06T02:47:27.226Z,12.95
2017-10-06T02:49:54.767Z,12.99
2017-10-06T02:52:22.552Z,13.04
2017-10-06T02:54:50.169Z,12.86
2017-10-06T02:57:17.695Z,12.93
2017-10-06T02:59:45.253Z,12.81
2017-10-06T03:02:12.824Z,12.64
2017-10-06T03:04:40.347Z,12.66
2017-10-06T03:07:08.126Z,12.58
2017-10-06T03:09:35.671Z,12.15
2017-10-06T03:12:03.215Z,12.31
2017-10-06T03:14:30.742Z,12.40
2017-10-06T03:16:58.346Z,12.57
2017-10-06T03:19:25.883Z,12.47
2017-10-06T03:21:53.423Z,12.51
2017-10-06T03:24:21.046Z,12.59
2017-10-06T03:26:48.585Z,12.75
2017-10-06T03:29:16.189Z,12.75
2017-10-06T03:31:43.927Z,12.76
2017-10-06T03:34:11.495Z,12.74
2017-10-06T03:36:39.295Z,12.72
2017-10-06T03:39:06.876Z,12.67
2017-10-06T03:41:34.444Z,12.63
2017-10-06T03:44:01.993Z,12.49
2017-10-06T03:46:29.570Z,12.48
2017-10-06T03:48:57.087Z,12.57
2017-10-06T03:51:24.630Z,12.50
2017-10-06T03:53:52.580Z,12.62
2017-10-06T03:56:20.123Z,12.67
2017-10-06T03:58:47.682Z,12.51
2017-10-06T04:01:15.255Z,12.28
2017-10-06T04:03:42.775Z,12.58
2017-10-06T04:06:10.347Z,12.43
2017-10-06T04:08:37.927Z,12.41
2017-10-06T04:11:05.489Z,12.25
2017-10-06T04:13:33.658Z,12.44
2017-10-06T04:16:01.222Z,14.13
2017-10-06T04:18:28.750Z,15.36
2017-10-06T04:20:56.379Z,14.67
2017-10-06T04:23:23.975Z,13.89
2017-10-06T04:25:51.537Z,13.63
2017-10-06T04:28:19.114Z,13.50
2017-10-06T04:30:46.712Z,13.32
2017-10-06T04:33:14.248Z,13.23
2017-10-06T04:35:41.782Z,13.36
2017-10-06T04:38:09.406Z,13.51
2017-10-06T04:40:37.281Z,13.62
2017-10-06T04:43:04.908Z,13.60
2017-10-06T04:45:32.510Z,13.79
2017-10-06T04:48:00.066Z,13.43
2017-10-06T04:50:27.695Z,13.48
2017-10-06T04:52:55.305Z,13.36
2017-10-06T04:55:23.119Z,13.28
2017-10-06T04:57:50.773Z,13.33
2017-10-06T05:00:18.405Z,13.40
2017-10-06T05:02:45.955Z,13.10
2017-10-06T05:05:13.552Z,13.02
2017-10-06T05:07:41.109Z,13.39
2017-10-06T05:10:08.875Z,14.14
2017-10-06T05:12:36.479Z,14.64
2017-10-06T05:15:04.101Z,15.60
2017-10-06T05:17:31.684Z,15.92
2017-10-06T05:19:59.315Z,15.52
2017-10-06T05:22:26.890Z,16.29
2017-10-06T05:24:54.475Z,16.79
2017-10-06T05:27:22.083Z,17.65
2017-10-06T05:29:49.703Z,18.41
2017-10-06T05:32:17.377Z,19.13
2017-10-06T05:34:44.929Z,19.75
2017-10-06T05:37:12.526Z,20.21
2017-10-06T05:39:40.142Z,19.72
2017-10-06T05:42:07.694Z,19.69
2017-10-06T05:44:35.246Z,19.72
2017-10-06T05:47:02.789Z,20.88
2017-10-06T05:49:30.334Z,21.44
2017-10-06T05:51:57.910Z,21.47
2017-10-06T05:54:25.522Z,21.54
2017-10-06T05:56:53.049Z,21.96
2017-10-06T05:59:20.587Z,21.54
2017-10-06T06:01:48.217Z,21.90
2017-10-06T06:04:15.792Z,22.49
2017-10-06T06:06:43.338Z,22.70
2017-10-06T06:09:10.947Z,23.29
2017-10-06T06:11:38.539Z,23.69
2017-10-06T06:14:06.089Z,23.95
2017-10-06T06:16:33.710Z,24.36
2017-10-06T06:19:01.250Z,24.40
2017-10-06T06:21:29.645Z,24.91
2017-10-06T06:23:57.306Z,24.97
2017-10-06T06:26:25.159Z,25.29
2017-10-06T06:28:52.814Z,25.06
2017-10-06T06:31:20.418Z,24.66
2017-10-06T06:33:48.183Z,24.42
2017-10-06T06:36:15.761Z,24.90
2017-10-06T06:38:43.448Z,24.95
2017-10-06T06:41:11.011Z,25.61
2017-10-06T06:43:38.562Z,25.29
2017-10-06T06:46:06.182Z,25.19
2017-10-06T06:48:33.741Z,25.25
2017-10-06T06:51:01.307Z,25.79
2017-10-06T06:53:28.978Z,26.20
2017-10-06T06:55:56.550Z,26.18
2017-10-06T06:58:24.204Z,26.96
2017-10-06T07:00:51.884Z,27.20
2017-10-06T07:03:19.447Z,26.80
2017-10-06T07:05:47.192Z,26.27
2017-10-06T07:08:14.795Z,26.77
2017-10-06T07:10:42.574Z,26.02
2017-10-06T07:13:10.203Z,24.92
2017-10-06T07:15:37.835Z,25.43
2017-10-06T07:18:05.373Z,25.15
2017-10-06T07:20:32.944Z,25.09
2017-10-06T07:23:00.534Z,25.54
2017-10-06T07:25:28.282Z,25.79
2017-10-06T07:27:55.906Z,25.54
2017-10-06T07:30:23.518Z,26.12
2017-10-06T07:32:52.366Z,26.08
2017-10-06T07:35:19.968Z,26.09
2017-10-06T07:37:48.349Z,27.00
2017-10-06T07:40:15.925Z,27.25
2017-10-06T07:42:43.479Z,27.61
2017-10-06T07:45:11.098Z,27.64
2017-10-06T07:47:38.635Z,28.37
2017-10-06T07:50:06.179Z,28.40
2017-10-06T07:52:34.206Z,28.19
2017-10-06T07:55:01.848Z,28.10
2017-10-06T07:57:29.592Z,28.41
2017-10-06T07:59:57.188Z,28.22
2017-10-06T08:02:24.806Z,28.17
2017-10-06T08:04:52.391Z,28.22
2017-10-06T08:07:19.983Z,28.00
2017-10-06T08:09:47.588Z,27.81
2017-10-06T08:12:15.358Z,28.27
2017-10-06T08:14:42.961Z,28.02
2017-10-06T08:17:10.570Z,28.72
2017-10-06T08:19:38.969Z,28.69
2017-10-06T08:22:06.557Z,27.47
2017-10-06T08:24:34.168Z,27.66
2017-10-06T08:27:01.949Z,27.71
2017-10-06T08:29:29.740Z,28.03
2017-10-06T08:31:57.359Z,28.68
2017-10-06T08:34:24.944Z,28.49
2017-10-06T08:36:52.555Z,29.06
2017-10-06T08:39:20.163Z,28.31
2017-10-06T08:41:47.980Z,28.69
2017-10-06T08:44:15.573Z,28.05
2017-10-06T08:46:43.268Z,28.63
2017-10-06T08:49:10.850Z,28.84
2017-10-06T08:51:39.982Z,29.41
2017-10-06T08:54:07.590Z,29.77
2017-10-06T08:56:35.205Z,30.12
2017-10-06T08:59:02.809Z,29.89
2017-10-06T09:01:30.407Z,29.98
2017-10-06T09:03:57.979Z,29.50
2017-10-06T09:06:25.568Z,29.65
2017-10-06T09:08:53.205Z,29.99
2017-10-06T09:11:20.840Z,29.85
2017-10-06T09:13:49.160Z,30.07
2017-10-06T09:16:16.754Z,29.72
2017-10-06T09:18:44.343Z,30.31
2017-10-06T09:21:11.878Z,30.67
2017-10-06T09:23:39.471Z,29.93
2017-10-06T09:26:07.657Z,29.40
2017-10-06T09:28:35.370Z,29.44
2017-10-06T09:31:03.004Z,29.00
2017-10-06T09:33:30.573Z,28.46
2017-10-06T09:35:58.179Z,28.16
2017-10-06T09:38:25.809Z,27.47
2017-10-06T09:40:53.394Z,26.97
2017-10-06T09:43:20.929Z,26.89
2017-10-06T09:45:48.582Z,26.40
2017-10-06T09:48:16.195Z,26.44
2017-10-06T09:50:43.781Z,26.66
2017-10-06T09:53:11.369Z,26.72
2017-10-06T09:55:39.719Z,26.82
2017-10-06T09:58:07.277Z,26.72
2017-10-06T10:00:34.898Z,26.52
2017-10-06T10:03:02.509Z,26.63
2017-10-06T10:05:30.124Z,26.98
2017-10-06T10:07:57.730Z,26.99
2017-10-06T10:10:25.283Z,26.89
2017-10-06T10:12:52.872Z,26.84
2017-10-06T10:15:20.503Z,26.51
2017-10-06T10:17:48.135Z,26.74
2017-10-06T10:20:15.717Z,26.58
2017-10-06T10:22:43.522Z,26.55
2017-10-06T10:25:11.078Z,26.60
2017-10-06T10:27:38.655Z,26.55
2017-10-06T10:30:06.670Z,26.36
2017-10-06T10:32:34.251Z,26.70
2017-10-06T10:35:01.859Z,27.04
2017-10-06T10:37:29.448Z,27.15
2017-10-06T10:39:57.256Z,26.24
2017-10-06T10:42:24.839Z,26.25
2017-10-06T10:44:52.463Z,26.47
2017-10-06T10:47:20.131Z,26.25
2017-10-06T10:49:47.718Z,26.21
2017-10-06T10:52:15.347Z,26.53
2017-10-06T10:54:42.906Z,26.83
2017-10-06T10:57:10.478Z,26.76
2017-10-06T10:59:38.101Z,27.00
2017-10-06T11:02:05.699Z,27.17
2017-10-06T11:04:33.470Z,27.53
2017-10-06T11:07:01.297Z,27.52
2017-10-06T11:09:28.904Z,27.34
2017-10-06T11:11:56.471Z,26.82
2017-10-06T11:14:24.099Z,27.13
2017-10-06T11:16:51.669Z,27.19
2017-10-06T11:19:19.275Z,27.24
2017-10-06T11:21:46.850Z,27.33
2017-10-06T11:24:14.460Z,27.38
2017-10-06T11:26:42.085Z,27.26
2017-10-06T11:29:09.668Z,27.30
2017-10-06T11:31:37.302Z,26.99
2017-10-06T11:34:04.950Z,27.31
2017-10-06T11:36:32.530Z,26.98
2017-10-06T11:39:00.118Z,26.56
2017-10-06T11:41:27.671Z,26.75
2017-10-06T11:43:55.300Z,27.09
2017-10-06T11:46:23.003Z,27.05
2017-10-06T11:48:50.578Z,27.21
2017-10-06T11:51:18.255Z,26.81
2017-10-06T11:53:45.897Z,26.98
2017-10-06T11:56:13.534Z,27.11
2017-10-06T11:58:41.319Z,26.62
2017-10-06T12:01:08.882Z,27.04
2017-10-06T12:03:36.547Z,27.54
2017-10-06T12:06:04.124Z,27.49
2017-10-06T12:08:31.761Z,27.24
2017-10-06T12:10:59.635Z,27.30
2017-10-06T12:13:27.184Z,27.31
2017-10-06T12:15:54.852Z,27.62
2017-10-06T12:18:23.282Z,27.61
2017-10-06T12:20:50.882Z,27.54
2017-10-06T12:23:18.498Z,27.97
2017-10-06T12:25:46.070Z,27.99
2017-10-06T12:28:13.612Z,27.61
2017-10-06T12:30:41.235Z,27.09
2017-10-06T12:33:08.851Z,27.13
2017-10-06T12:35:36.626Z,27.05
2017-10-06T12:38:04.250Z,26.38
2017-10-06T12:40:31.906Z,26.45
2017-10-06T12:42:59.470Z,26.41
2017-10-06T12:45:27.282Z,26.01
2017-10-06T12:47:54.829Z,25.54
2017-10-06T12:50:22.375Z,25.19
2017-10-06T12:52:49.966Z,24.87
2017-10-06T12:55:17.520Z,24.17
2017-10-06T12:57:45.139Z,23.89
2017-10-06T13:00:12.746Z,23.63
2017-10-06T13:02:40.369Z,23.53
2017-10-06T13:05:07.925Z,23.41
2017-10-06T13:07:35.537Z,23.25
2017-10-06T13:10:03.144Z,23.06
2017-10-06T13:12:30.706Z,23.05
2017-10-06T13:14:58.315Z,22.74
2017-10-06T13:17:25.838Z,22.66
2017-10-06T13:19:53.401Z,22.39
2017-10-06T13:22:20.998Z,22.05
2017-10-06T13:24:48.550Z,22.20
2017-10-06T13:27:16.167Z,22.07
2017-10-06T13:29:43.749Z,22.02
2017-10-06T13:32:11.359Z,21.70
2017-10-06T13:34:38.914Z,21.55
2017-10-06T13:37:06.426Z,21.26
2017-10-06T13:39:34.013Z,21.27
2017-10-06T13:42:01.576Z,21.10
2017-10-06T13:44:29.367Z,21.17
2017-10-06T13:46:56.953Z,21.29
2017-10-06T13:49:24.576Z,20.92
2017-10-06T13:51:52.438Z,21.01
2017-10-06T13:54:20.670Z,20.77
2017-10-06T13:56:48.218Z,20.54
2017-10-06T13:59:15.807Z,20.48
2017-10-06T14:01:43.533Z,20.64
2017-10-06T14:04:11.348Z,20.63
2017-10-06T14:06:40.046Z,20.39
2017-10-06T14:09:07.649Z,20.46
2017-10-06T14:11:35.402Z,20.57
2017-10-06T14:14:03.079Z,20.76
2017-10-06T14:16:30.668Z,21.00
2017-10-06T14:18:58.227Z,20.68
2017-10-06T14:21:25.764Z,20.57
2017-10-06T14:23:53.351Z,20.31
2017-10-06T14:26:21.573Z,20.05
2017-10-06T14:28:49.104Z,19.92
2017-10-06T14:31:16.682Z,19.84
2017-10-06T14:33:44.210Z,19.61
2017-10-06T14:36:12.235Z,19.21
2017-10-06T14:38:39.842Z,19.17
2017-10-06T14:41:07.371Z,19.04
2017-10-06T14:43:35.129Z,19.01
2017-10-06T14:46:02.704Z,19.14
2017-10-06T14:48:30.255Z,18.89
2017-10-06T14:50:58.509Z,18.70
2017-10-06T14:53:26.127Z,18.63
2017-10-06T14:55:53.878Z,18.45
2017-10-06T14:58:23.782Z,18.24
2017-10-06T15:00:51.740Z,18.20
2017-10-06T15:03:19.392Z,18.26
2017-10-06T15:05:47.019Z,18.02
2017-10-06T15:08:14.661Z,17.83
2017-10-06T15:10:43.135Z,17.85
2017-10-06T15:13:10.851Z,17.97
2017-10-06T15:15:38.465Z,17.71
2017-10-06T15:18:06.443Z,17.67
2017-10-06T15:20:34.042Z,17.52
2017-10-06T15:23:01.791Z,17.57
2017-10-06T15:25:29.365Z,17.33
2017-10-06T15:27:57.124Z,17.44
2017-10-06T15:30:25.712Z,17.39
2017-10-06T15:32:53.386Z,17.40
2017-10-06T15:35:23.739Z,17.37
2017-10-06T15:37:51.542Z,17.38
2017-10-06T15:40:19.207Z,17.29
2017-10-06T15:42:47.366Z,17.02
2017-10-06T15:45:14.927Z,17.17
2017-10-06T15:47:42.586Z,17.04
2017-10-06T15:50:10.145Z,16.79
2017-10-06T15:52:37.812Z,16.74
2017-10-06T15:55:05.436Z,16.56
2017-10-06T15:57:33.046Z,16.72
2017-10-06T16:00:00.679Z,16.62
2017-10-06T16:02:28.265Z,16.69
2017-10-06T16:04:55.857Z,16.61
2017-10-06T16:07:23.439Z,16.48
2017-10-06T16:09:51.110Z,16.49
2017-10-06T16:12:20.049Z,16.59
2017-10-06T16:14:47.656Z,16.52
2017-10-06T16:17:15.456Z,16.57
2017-10-06T16:19:43.067Z,16.37
2017-10-06T16:22:10.667Z,16.23
2017-10-06T16:24:38.233Z,15.91
2017-10-06T16:27:06.636Z,15.73
2017-10-06T16:29:34.471Z,15.64
2017-10-06T16:32:02.099Z,15.69
2017-10-06T16:34:29.843Z,15.68
2017-10-06T16:36:57.684Z,15.67
2017-10-06T16:39:25.495Z,15.50
2017-10-06T16:41:53.091Z,15.53
2017-10-06T16:44:20.659Z,15.54
2017-10-06T16:46:48.337Z,15.62
2017-10-06T16:49:15.930Z,15.57
2017-10-06T16:51:43.545Z,15.30
2017-10-06T16:54:11.215Z,15.23
2017-10-06T16:56:38.819Z,15.25
2017-10-06T16:59:09.060Z,15.28
2017-10-06T17:01:37.430Z,15.08
2017-10-06T17:04:06.163Z,15.02
2017-10-06T17:06:33.773Z,14.86
2017-10-06T17:09:02.275Z,14.84
2017-10-06T17:11:29.947Z,14.76
2017-10-06T17:13:57.562Z,14.58
2017-10-06T17:16:26.320Z,14.73
2017-10-06T17:18:55.370Z,14.71
2017-10-06T17:21:26.197Z,14.66
2017-10-06T17:23:55.731Z,14.72
2017-10-06T17:26:23.252Z,14.65
2017-10-06T17:28:51.621Z,14.48
2017-10-06T17:31:19.198Z,14.45
2017-10-06T17:33:46.762Z,14.47
2017-10-06T17:36:15.151Z,14.15
2017-10-06T17:38:42.893Z,14.25
2017-10-06T17:41:10.476Z,14.40
2017-10-06T17:43:38.898Z,14.32
2017-10-06T17:46:06.489Z,14.19
2017-10-06T17:48:34.586Z,14.10
2017-10-06T17:51:02.374Z,14.01
2017-10-06T17:53:30.046Z,13.82
2017-10-06T17:55:57.653Z,13.56
2017-10-06T17:58:25.462Z,13.96
2017-10-06T18:00:53.143Z,13.91
2017-10-06T18:03:20.755Z,13.71
2017-10-06T18:05:48.291Z,13.87
2017-10-06T18:08:16.654Z,13.65
2017-10-06T18:10:45.334Z,13.58
2017-10-06T18:13:17.211Z,13.68
2017-10-06T18:15:45.777Z,13.51
2017-10-06T18:18:13.400Z,13.68
2017-10-06T18:20:41.034Z,13.65
2017-10-06T18:23:08.733Z,13.56
2017-10-06T18:25:36.547Z,13.58
2017-10-06T18:28:04.106Z,13.47
2017-10-06T18:30:31.918Z,13.50
2017-10-06T18:32:59.758Z,13.48
2017-10-06T18:35:27.506Z,13.48
2017-10-06T18:37:55.058Z,13.63
2017-10-06T18:40:22.648Z,13.55
2017-10-06T18:42:50.809Z,13.59
2017-10-06T18:45:18.437Z,13.53
2017-10-06T18:47:46.070Z,13.70
2017-10-06T18:50:13.622Z,13.76
2017-10-06T18:52:41.187Z,13.73
2017-10-06T18:55:08.977Z,13.66
2017-10-06T18:57:37.418Z,13.66
2017-10-06T19:00:08.651Z,13.66
2017-10-06T19:02:36.427Z,13.64
2017-10-06T19:05:04.019Z,13.62
2017-10-06T19:07:31.588Z,13.52
2017-10-06T19:09:59.123Z,13.50
2017-10-06T19:12:26.626Z,13.57
2017-10-06T19:14:54.182Z,13.64
2017-10-06T19:17:22.127Z,13.74
2017-10-06T19:19:49.698Z,13.69
2017-10-06T19:22:17.284Z,13.67
2017-10-06T19:24:44.874Z,13.52
2017-10-06T19:27:12.489Z,13.72
2017-10-06T19:29:40.114Z,13.60
2017-10-06T19:32:07.791Z,13.50
2017-10-06T19:34:35.358Z,13.40
2017-10-06T19:37:09.361Z,12.97
2017-10-06T19:39:37.977Z,13.26
2017-10-06T19:42:05.807Z,13.21
2017-10-06T19:44:33.405Z,13.02
2017-10-06T19:47:00.997Z,13.02
2017-10-06T19:49:29.071Z,12.84
2017-10-06T19:51:57.573Z,13.08
2017-10-06T19:54:27.887Z,13.02
2017-10-06T19:57:00.578Z,12.76
2017-10-06T19:59:30.823Z,12.90
2017-10-06T20:01:58.587Z,12.81
2017-10-06T20:04:28.698Z,12.61
2017-10-06T20:07:01.071Z,12.63
2017-10-06T20:09:31.989Z,12.54
2017-10-06T20:12:11.696Z,12.50
2017-10-06T20:14:57.630Z,12.55
2017-10-06T20:17:31.246Z,12.44
2017-10-06T20:20:03.521Z,12.37
2017-10-06T20:22:36.137Z,12.31
2017-10-06T20:25:03.812Z,12.41
2017-10-06T20:27:31.903Z,12.29
2017-10-06T20:30:00.414Z,12.26
2017-10-06T20:32:28.007Z,12.37
2017-10-06T20:34:56.115Z,12.30
2017-10-06T20:37:23.975Z,12.33
2017-10-06T20:39:51.567Z,12.21
2017-10-06T20:42:19.714Z,12.25
2017-10-06T20:44:47.646Z,12.33
2017-10-06T20:47:15.325Z,12.39
2017-10-06T20:49:43.136Z,12.34
2017-10-06T20:52:10.742Z,12.17
2017-10-06T20:54:38.363Z,12.19
2017-10-06T20:57:05.908Z,12.32
2017-10-06T20:59:33.703Z,12.18
2017-10-06T21:02:01.537Z,12.16
2017-10-06T21:04:29.169Z,12.06
2017-10-06T21:06:56.775Z,11.97
2017-10-06T21:09:24.392Z,12.00
2017-10-06T21:11:51.978Z,12.17
2017-10-06T21:14:19.783Z,12.00
2017-10-06T21:16:47.399Z,12.06
2017-10-06T21:19:15.053Z,12.08
2017-10-06T21:21:42.811Z,11.96
2017-10-06T21:24:10.434Z,11.93
2017-10-06T21:26:38.184Z,12.01
2017-10-06T21:29:06.510Z,12.12
2017-10-06T21:31:34.139Z,12.09
2017-10-06T21:34:01.915Z,12.11
2017-10-06T21:36:29.692Z,12.13
2017-10-06T21:38:57.325Z,12.14
2017-10-06T21:41:25.218Z,12.12
2017-10-06T21:43:52.756Z,12.06
2017-10-06T21:46:20.343Z,11.95
2017-10-06T21:48:48.468Z,12.07
2017-10-06T21:51:15.994Z,11.95
2017-10-06T21:53:43.599Z,12.04
2017-10-06T21:56:11.351Z,11.99
2017-10-06T21:58:39.103Z,11.93
2017-10-06T22:01:06.719Z,11.97
2017-10-06T22:03:34.312Z,11.94
2017-10-06T22:06:01.942Z,12.17
2017-10-06T22:08:29.576Z,12.19
2017-10-06T22:10:57.216Z,12.19
2017-10-06T22:13:24.953Z,12.20
2017-10-06T22:15:52.548Z,12.33
2017-10-06T22:18:20.125Z,12.31
2017-10-06T22:20:47.661Z,12.23
2017-10-06T22:23:15.245Z,12.39
2017-10-06T22:25:42.990Z,12.36
2017-10-06T22:28:10.575Z,12.40
2017-10-06T22:30:38.203Z,12.25
2017-10-06T22:33:05.816Z,12.36
2017-10-06T22:35:35.696Z,12.40
2017-10-06T22:38:04.786Z,12.44
2017-10-06T22:40:32.427Z,12.39
2017-10-06T22:43:00.026Z,12.38
2017-10-06T22:45:27.668Z,12.38
2017-10-06T22:47:55.525Z,12.26
2017-10-06T22:50:23.131Z,12.31
2017-10-06T22:52:50.754Z,12.42
2017-10-06T22:55:18.419Z,12.42
2017-10-06T22:57:46.168Z,12.37
2017-10-06T23:00:13.890Z,12.25
2017-10-06T23:02:41.476Z,12.36
2017-10-06T23:05:09.053Z,12.39
2017-10-06T23:07:36.644Z,12.53
2017-10-06T23:10:04.280Z,12.59
2017-10-06T23:12:31.815Z,12.64
2017-10-06T23:14:59.382Z,12.68
2017-10-06T23:17:26.962Z,12.64
2017-10-06T23:19:54.722Z,12.43
2017-10-06T23:22:22.314Z,12.28
2017-10-06T23:24:49.858Z,12.28
2017-10-06T23:27:17.591Z,12.28
2017-10-06T23:29:45.191Z,12.23
2017-10-06T23:32:12.755Z,12.16
2017-10-06T23:34:41.247Z,12.18
2017-10-06T23:37:08.841Z,12.25
2017-10-06T23:39:37.355Z,12.29
2017-10-06T23:42:04.986Z,12.43
2017-10-06T23:44:32.568Z,12.52
2017-10-06T23:47:01.449Z,12.49
2017-10-06T23:49:28.979Z,12.56
2017-10-06T23:51:56.847Z,12.54
2017-10-06T23:54:24.505Z,12.65
2017-10-06T23:56:52.087Z,12.59
2017-10-06T23:59:19.641Z,12.60
